Time;durP1;ratioP1;P1;durP2;ratioP2;P2;SDS_P1;SDS_P2;PMS_P1;PMS_P2;Temp;Humidity;BMP_temperature;BMP_pressure;BME280_temperature;BME280_humidity;BME280_pressure;Samples;Min_cycle;Max_cycle;Signal;HPM_P1;HPM_P2
2023/02/28 00:00:28;;;;;;;10.10;5.88;;;20.70;70.80;;;;;;5044216;28;20206;-61
2023/02/28 00:02:56;;;;;;;9.73;5.90;;;20.70;70.90;;;;;;5047537;28;20783;-61
2023/02/28 00:05:25;;;;;;;6.43;5.38;;;20.60;70.80;;;;;;5040552;28;20193;-61
2023/02/28 00:07:52;;;;;;;6.40;4.82;;;20.60;70.80;;;;;;5040631;28;20439;-61
2023/02/28 00:10:22;;;;;;;6.32;5.25;;;20.60;71.60;;;;;;5042139;28;20200;-61
2023/02/28 00:12:49;;;;;;;7.70;5.00;;;20.60;70.80;;;;;;5040058;28;20200;-62
2023/02/28 00:15:16;;;;;;;6.32;5.03;;;20.60;70.70;;;;;;5042016;28;20200;-61
2023/02/28 00:17:43;;;;;;;9.82;5.50;;;20.60;70.80;;;;;;5046637;28;20192;-61
2023/02/28 00:20:13;;;;;;;6.32;4.70;;;20.60;70.70;;;;;;5042322;28;20229;-61
2023/02/28 00:22:41;;;;;;;5.97;5.40;;;20.60;70.70;;;;;;5042984;28;20230;-61
2023/02/28 00:25:09;;;;;;;6.38;5.28;;;20.60;70.60;;;;;;5040419;28;20199;-62
2023/02/28 00:27:36;;;;;;;6.30;5.35;;;20.50;70.40;;;;;;5051521;28;20192;-61
2023/02/28 00:30:03;;;;;;;6.65;5.32;;;20.50;70.40;;;;;;5052332;28;20192;-62
2023/02/28 00:32:30;;;;;;;6.25;5.65;;;20.50;70.40;;;;;;5047160;28;20196;-62
2023/02/28 00:34:57;;;;;;;5.72;5.05;;;20.50;70.40;;;;;;5043488;28;20283;-61
2023/02/28 00:37:25;;;;;;;5.60;5.10;;;20.50;70.40;;;;;;5049285;28;20245;-62
2023/02/28 00:39:52;;;;;;;5.68;5.07;;;20.50;71.20;;;;;;5048423;28;20199;-62
2023/02/28 00:42:18;;;;;;;5.70;4.93;;;20.50;70.40;;;;;;5047951;28;20297;-62
2023/02/28 00:44:45;;;;;;;7.18;5.60;;;20.50;70.30;;;;;;5048936;28;20462;-61
2023/02/28 00:47:12;;;;;;;6.22;5.40;;;20.50;70.30;;;;;;5050015;28;20249;-62
2023/02/28 00:49:38;;;;;;;6.65;5.35;;;20.50;70.30;;;;;;5046427;28;20261;-61
2023/02/28 00:52:05;;;;;;;5.90;5.30;;;20.50;70.30;;;;;;5049823;28;20563;-61
2023/02/28 00:54:33;;;;;;;6.13;4.60;;;20.50;70.20;;;;;;5041023;28;20203;-62
2023/02/28 00:57:00;;;;;;;6.88;5.60;;;20.50;70.20;;;;;;5043885;28;20225;-62
2023/02/28 00:59:27;;;;;;;6.35;4.93;;;20.50;70.20;;;;;;5043878;28;20606;-61
2023/02/28 01:01:54;;;;;;;5.38;4.95;;;20.50;70.20;;;;;;5046358;28;20245;-62
2023/02/28 01:04:20;;;;;;;7.18;5.43;;;20.50;70.20;;;;;;5042468;28;20206;-61
2023/02/28 01:06:47;;;;;;;7.22;5.55;;;20.50;70.10;;;;;;5041133;28;20205;-61
2023/02/28 01:09:14;;;;;;;7.90;5.35;;;20.50;70.10;;;;;;5047141;28;20204;-62
2023/02/28 01:11:43;;;;;;;5.25;4.63;;;20.50;70.20;;;;;;5046081;28;20191;-61
2023/02/28 01:14:13;;;;;;;4.95;4.53;;;20.50;70.10;;;;;;5041127;28;20192;-62
2023/02/28 01:16:40;;;;;;;6.63;5.80;;;20.50;70.10;;;;;;5044190;28;20192;-62
2023/02/28 01:19:07;;;;;;;5.72;5.10;;;20.50;70.10;;;;;;5047191;28;20256;-62
2023/02/28 01:21:35;;;;;;;5.60;5.05;;;20.50;70.00;;;;;;5047559;28;20219;-61
2023/02/28 01:24:02;;;;;;;6.18;4.85;;;20.50;70.00;;;;;;5048791;28;20223;-61
2023/02/28 01:26:29;;;;;;;10.68;6.40;;;20.50;70.10;;;;;;5039013;28;20196;-62
2023/02/28 01:28:57;;;;;;;4.95;4.50;;;20.40;70.00;;;;;;5037209;28;20198;-61
2023/02/28 01:31:24;;;;;;;5.70;5.20;;;20.40;69.90;;;;;;5043938;28;20678;-62
2023/02/28 01:33:51;;;;;;;6.88;5.22;;;20.40;70.00;;;;;;5038048;28;20818;-61
2023/02/28 01:36:20;;;;;;;7.75;5.53;;;20.40;69.90;;;;;;5049229;28;20196;-62
2023/02/28 01:38:47;;;;;;;6.93;5.18;;;20.40;69.80;;;;;;5041170;28;20200;-61
2023/02/28 01:41:18;;;;;;;6.05;5.28;;;20.40;69.90;;;;;;5039383;28;20206;-62
2023/02/28 01:44:05;;;;;;;6.15;5.03;;;20.40;69.90;;;;;;5043456;28;20226;-62
2023/02/28 01:46:32;;;;;;;6.35;5.50;;;20.40;69.80;;;;;;5048334;28;20195;-61
2023/02/28 01:49:04;;;;;;;5.97;5.38;;;20.40;69.80;;;;;;5039860;28;20656;-62
2023/02/28 01:51:38;;;;;;;6.05;5.25;;;20.40;69.80;;;;;;5049953;28;20632;-61
2023/02/28 01:54:13;;;;;;;6.10;5.32;;;20.40;69.80;;;;;;5046719;28;20199;-61
2023/02/28 01:56:44;;;;;;;6.75;4.90;;;20.40;69.80;;;;;;5040013;28;20204;-61
2023/02/28 01:59:14;;;;;;;5.45;4.90;;;20.40;69.80;;;;;;5038090;28;20682;-61
2023/02/28 02:01:41;;;;;;;4.72;4.32;;;20.40;69.80;;;;;;5050160;28;20191;-61
2023/02/28 02:04:08;;;;;;;5.47;4.35;;;20.40;69.80;;;;;;5043275;28;20222;-61
2023/02/28 02:06:38;;;;;;;5.00;4.50;;;20.40;69.80;;;;;;5041770;28;20207;-61
2023/02/28 02:09:05;;;;;;;5.55;4.95;;;20.40;69.80;;;;;;5045229;28;20245;-62
2023/02/28 02:11:33;;;;;;;6.45;5.30;;;20.40;69.80;;;;;;5048475;28;20678;-61
2023/02/28 02:14:23;;;;;;;6.13;4.72;;;20.40;69.80;;;;;;5039116;28;20208;-61
2023/02/28 02:17:03;;;;;;;5.47;4.93;;;20.40;69.80;;;;;;5051001;28;20206;-61
2023/02/28 02:20:08;;;;;;;4.95;4.25;;;20.40;69.80;;;;;;5047537;28;20204;-61
2023/02/28 02:23:03;;;;;;;5.63;5.15;;;20.30;69.70;;;;;;4985824;28;20225;-62
2023/02/28 02:25:35;;;;;;;6.30;5.20;;;20.30;69.60;;;;;;5033147;28;20196;-61
2023/02/28 02:28:41;;;;;;;5.10;4.60;;;20.30;69.60;;;;;;5043915;28;20202;-61
2023/02/28 02:31:34;;;;;;;5.82;5.32;;;20.30;69.60;;;;;;5044715;28;20583;-62
2023/02/28 02:34:29;;;;;;;5.50;5.00;;;20.30;69.60;;;;;;5038207;28;20204;-61
2023/02/28 02:37:06;;;;;;;6.60;5.07;;;20.30;70.40;;;;;;5044379;28;20199;-61
2023/02/28 02:39:41;;;;;;;5.03;4.57;;;20.30;69.60;;;;;;5045093;28;20203;-61
2023/02/28 02:42:16;;;;;;;5.63;5.03;;;20.30;69.60;;;;;;5042917;28;20187;-61
2023/02/28 02:44:48;;;;;;;5.25;4.75;;;20.30;69.60;;;;;;5039973;28;20567;-61
2023/02/28 02:47:19;;;;;;;5.40;4.90;;;20.30;69.60;;;;;;5047142;28;20750;-61
2023/02/28 02:49:51;;;;;;;5.82;4.80;;;20.30;69.60;;;;;;5039703;28;20199;-62
2023/02/28 02:52:22;;;;;;;9.25;6.35;;;20.30;69.60;;;;;;5043742;28;20600;-61
2023/02/28 02:54:52;;;;;;;5.20;4.70;;;20.30;69.60;;;;;;5039555;28;20606;-61
2023/02/28 02:57:24;;;;;;;5.20;4.70;;;20.30;69.60;;;;;;5046450;28;20195;-62
2023/02/28 02:59:53;;;;;;;7.43;5.57;;;20.30;69.60;;;;;;5045056;28;20261;-62
2023/02/28 03:02:22;;;;;;;7.25;5.00;;;20.30;69.60;;;;;;5046292;28;20200;-62
2023/02/28 03:04:54;;;;;;;5.00;4.53;;;20.30;69.60;;;;;;5046457;28;20552;-62
2023/02/28 03:07:21;;;;;;;4.70;4.20;;;20.30;69.60;;;;;;5041276;28;20619;-62
2023/02/28 03:09:53;;;;;;;4.47;4.05;;;20.30;69.50;;;;;;5046810;28;20796;-61
2023/02/28 03:12:21;;;;;;;4.97;4.43;;;20.30;69.50;;;;;;5040187;28;20278;-62
2023/02/28 03:14:57;;;;;;;5.18;4.68;;;20.30;69.60;;;;;;5042601;28;20571;-62
2023/02/28 03:17:35;;;;;;;5.60;4.88;;;20.20;69.50;;;;;;5037291;28;20214;-61
2023/02/28 03:20:12;;;;;;;5.22;4.80;;;20.20;69.50;;;;;;5043611;28;20195;-61
2023/02/28 03:22:52;;;;;;;4.18;3.58;;;20.20;69.40;;;;;;5045939;28;20229;-61
2023/02/28 03:25:27;;;;;;;6.15;5.63;;;20.20;69.40;;;;;;5046337;28;20187;-62
2023/02/28 03:28:01;;;;;;;4.70;4.20;;;20.20;69.50;;;;;;5036914;28;20203;-61
2023/02/28 03:30:36;;;;;;;5.05;4.50;;;20.20;69.50;;;;;;5046658;28;20230;-61
2023/02/28 03:33:07;;;;;;;4.80;4.40;;;20.20;69.40;;;;;;5045480;28;20194;-62
2023/02/28 03:35:40;;;;;;;4.97;4.57;;;20.20;69.50;;;;;;5038214;28;20191;-62
2023/02/28 03:38:13;;;;;;;4.72;4.20;;;20.20;69.40;;;;;;5039973;28;20200;-62
2023/02/28 04:17:45;;;;;;;4.55;4.15;;;20.10;69.20;;;;;;5043071;28;20224;-62
2023/02/28 04:20:13;;;;;;;4.97;4.10;;;20.10;69.20;;;;;;5047711;28;20203;-62
2023/02/28 04:22:39;;;;;;;5.05;4.63;;;20.10;70.00;;;;;;5049633;28;20212;-61
2023/02/28 04:25:07;;;;;;;4.55;3.95;;;20.10;69.20;;;;;;5049931;28;20604;-61
2023/02/28 04:27:34;;;;;;;4.20;3.90;;;20.10;69.20;;;;;;5051457;28;20207;-61
2023/02/28 04:30:01;;;;;;;3.75;3.50;;;20.10;69.20;;;;;;5042024;28;20578;-61
2023/02/28 04:32:28;;;;;;;4.82;4.32;;;20.10;69.20;;;;;;5051365;28;20199;-61
2023/02/28 04:34:56;;;;;;;5.45;3.95;;;20.10;69.20;;;;;;5046485;28;20202;-61
2023/02/28 04:37:27;;;;;;;3.67;3.30;;;20.10;69.20;;;;;;5049548;28;20192;-61
2023/02/28 04:39:54;;;;;;;4.55;4.18;;;20.10;69.20;;;;;;5050050;28;20204;-61
2023/02/28 04:42:21;;;;;;;6.22;4.53;;;20.10;69.10;;;;;;5050564;28;20203;-61
2023/02/28 04:44:47;;;;;;;4.03;3.72;;;20.10;69.10;;;;;;5048766;28;20230;-61
2023/02/28 04:47:14;;;;;;;4.65;3.60;;;20.10;69.00;;;;;;5044671;28;20222;-62
2023/02/28 04:49:42;;;;;;;4.35;3.50;;;20.10;69.10;;;;;;5048084;28;20203;-62
2023/02/28 04:52:10;;;;;;;5.78;3.72;;;20.10;69.10;;;;;;5048223;28;20200;-61
2023/02/28 04:54:38;;;;;;;3.70;3.40;;;20.10;69.20;;;;;;5045603;28;20207;-62
2023/02/28 04:57:05;;;;;;;4.25;3.85;;;20.10;69.20;;;;;;5043314;28;20195;-61
2023/02/28 04:59:32;;;;;;;4.40;4.00;;;20.10;69.20;;;;;;5037418;28;20201;-61
2023/02/28 05:01:59;;;;;;;4.20;3.85;;;20.10;69.20;;;;;;5035505;28;20199;-62
2023/02/28 05:04:25;;;;;;;3.85;3.55;;;20.10;69.20;;;;;;5040705;28;20212;-62
2023/02/28 05:06:52;;;;;;;5.15;4.40;;;20.10;69.20;;;;;;5045229;28;20694;-61
2023/02/28 05:09:20;;;;;;;3.92;3.63;;;20.10;69.30;;;;;;5034110;28;20203;-62
2023/02/28 05:11:47;;;;;;;3.72;3.42;;;20.10;69.30;;;;;;5041265;28;20207;-61
2023/02/28 05:14:15;;;;;;;3.63;3.33;;;20.10;69.30;;;;;;5033134;28;20773;-62
2023/02/28 05:16:41;;;;;;;3.65;3.35;;;20.10;69.30;;;;;;5040146;28;20204;-61
2023/02/28 05:19:08;;;;;;;3.70;3.40;;;20.10;69.30;;;;;;5053783;28;20194;-62
2023/02/28 05:21:36;;;;;;;3.30;3.00;;;20.10;69.40;;;;;;5046048;28;20590;-62
2023/02/28 05:24:05;;;;;;;3.55;3.30;;;20.10;69.30;;;;;;5041210;28;20567;-62
2023/02/28 05:26:36;;;;;;;3.83;3.53;;;20.10;69.40;;;;;;5045292;28;20203;-61
2023/02/28 05:29:03;;;;;;;3.92;3.58;;;20.10;69.40;;;;;;5039783;28;20668;-61
2023/02/28 05:31:30;;;;;;;3.40;3.13;;;20.10;69.40;;;;;;5042866;28;20206;-61
2023/02/28 05:33:56;;;;;;;3.53;3.22;;;20.10;69.40;;;;;;5040212;28;20669;-61
2023/02/28 05:36:23;;;;;;;2.88;2.63;;;20.10;70.30;;;;;;5043389;28;20674;-62
2023/02/28 05:38:51;;;;;;;4.95;3.92;;;20.10;69.40;;;;;;5046460;28;20199;-61
2023/02/28 05:41:19;;;;;;;3.70;3.40;;;20.10;69.40;;;;;;5048844;28;20200;-61
2023/02/28 05:43:47;;;;;;;3.72;3.38;;;20.10;69.40;;;;;;5043081;28;20227;-61
2023/02/28 05:46:15;;;;;;;5.47;3.70;;;20.10;69.40;;;;;;5054946;28;20210;-62
2023/02/28 05:48:43;;;;;;;3.83;3.53;;;20.10;69.40;;;;;;5046493;28;20204;-62
2023/02/28 05:51:09;;;;;;;3.63;3.33;;;20.10;69.50;;;;;;5045090;28;20203;-61
2023/02/28 05:53:36;;;;;;;3.60;3.25;;;20.10;69.40;;;;;;5044718;28;20204;-61
2023/02/28 05:56:04;;;;;;;3.90;3.47;;;20.10;70.20;;;;;;5046637;28;20195;-62
2023/02/28 05:58:31;;;;;;;4.18;3.85;;;20.10;69.50;;;;;;5049017;28;20191;-61
2023/02/28 06:01:00;;;;;;;3.17;2.97;;;20.10;69.40;;;;;;5048215;28;20195;-61
2023/02/28 06:03:27;;;;;;;3.58;3.22;;;20.10;69.40;;;;;;5044046;28;20227;-62
2023/02/28 06:05:54;;;;;;;3.78;3.38;;;20.10;69.40;;;;;;5042256;28;20192;-62
2023/02/28 06:08:20;;;;;;;3.45;3.10;;;20.10;69.40;;;;;;5049986;28;20206;-62
2023/02/28 06:10:47;;;;;;;3.70;3.38;;;20.10;69.40;;;;;;5043542;28;20214;-62
2023/02/28 06:13:14;;;;;;;3.33;3.03;;;20.10;69.40;;;;;;5041066;28;20200;-62
2023/02/28 06:15:41;;;;;;;3.17;2.88;;;20.10;69.40;;;;;;5039174;28;20196;-61
2023/02/28 06:18:09;;;;;;;3.25;3.05;;;20.10;69.40;;;;;;5048102;28;20364;-61
2023/02/28 06:20:36;;;;;;;3.78;3.30;;;20.10;69.40;;;;;;5045837;28;20195;-61
2023/02/28 06:23:03;;;;;;;3.17;2.97;;;20.10;69.40;;;;;;5048597;28;20219;-61
2023/02/28 06:25:29;;;;;;;3.90;3.20;;;20.10;69.40;;;;;;5047132;28;20308;-61
2023/02/28 06:27:56;;;;;;;3.30;3.00;;;20.10;70.20;;;;;;5045325;28;20659;-62
2023/02/28 06:30:26;;;;;;;3.15;2.95;;;20.10;69.40;;;;;;5040052;28;21455;-61
2023/02/28 06:32:54;;;;;;;3.38;2.75;;;20.10;69.40;;;;;;5038586;28;20619;-62
2023/02/28 06:35:22;;;;;;;4.38;3.22;;;20.10;69.40;;;;;;5048901;28;20191;-61
2023/02/28 06:37:49;;;;;;;2.88;2.65;;;20.10;69.40;;;;;;5039282;28;20273;-62
2023/02/28 06:40:16;;;;;;;3.50;3.20;;;20.10;69.30;;;;;;5043931;28;20207;-61
2023/02/28 06:42:43;;;;;;;4.00;3.70;;;20.10;69.40;;;;;;5047105;28;20206;-61
2023/02/28 06:45:11;;;;;;;4.68;3.00;;;20.10;69.30;;;;;;5041416;28;20222;-62
2023/02/28 06:47:38;;;;;;;3.10;2.78;;;20.10;69.40;;;;;;5046127;28;20207;-61
2023/02/28 06:50:06;;;;;;;3.40;2.58;;;20.10;69.40;;;;;;5038877;28;20192;-62
2023/02/28 06:52:36;;;;;;;2.90;2.70;;;20.10;69.40;;;;;;5042113;28;20196;-62
2023/02/28 06:55:03;;;;;;;3.03;2.83;;;20.10;69.50;;;;;;5045662;28;20233;-62
2023/02/28 06:57:30;;;;;;;3.40;2.50;;;20.10;69.50;;;;;;5044786;28;20204;-62
2023/02/28 06:59:58;;;;;;;5.22;3.33;;;20.10;69.60;;;;;;5037882;28;20256;-62
2023/02/28 07:02:25;;;;;;;3.53;2.83;;;20.10;69.40;;;;;;5044582;28;20199;-62
2023/02/28 07:04:51;;;;;;;2.83;2.60;;;20.10;69.40;;;;;;5036124;28;20248;-62
2023/02/28 07:07:18;;;;;;;3.80;3.25;;;20.10;69.30;;;;;;5039805;28;20195;-63
2023/02/28 07:09:46;;;;;;;3.15;2.85;;;20.10;68.40;;;;;;5044540;28;20200;-62
2023/02/28 07:12:13;;;;;;;3.42;3.13;;;20.10;68.30;;;;;;5038530;28;20196;-62
2023/02/28 07:14:40;;;;;;;5.20;3.65;;;20.10;68.60;;;;;;5043721;28;20207;-63
2023/02/28 07:17:08;;;;;;;3.55;2.92;;;20.10;68.80;;;;;;5045109;28;20199;-63
2023/02/28 07:19:34;;;;;;;5.55;2.80;;;20.10;68.90;;;;;;5038667;28;20278;-62
2023/02/28 07:22:02;;;;;;;3.70;3.40;;;20.10;69.00;;;;;;5042675;28;20215;-63
2023/02/28 07:24:29;;;;;;;4.10;2.35;;;20.10;69.80;;;;;;5038280;28;20708;-65
2023/02/28 07:26:57;;;;;;;3.53;3.22;;;20.10;69.00;;;;;;5037773;28;20191;-66
2023/02/28 07:29:24;;;;;;;5.25;3.00;;;20.20;69.10;;;;;;5039142;28;20200;-67
2023/02/28 07:31:52;;;;;;;2.92;2.72;;;20.20;69.20;;;;;;5042308;28;22413;-68
2023/02/28 07:34:19;;;;;;;4.00;2.70;;;20.20;69.30;;;;;;5037001;28;20203;-66
2023/02/28 07:36:46;;;;;;;4.45;3.10;;;20.30;69.40;;;;;;5043856;28;20192;-64
2023/02/28 07:39:13;;;;;;;2.88;2.53;;;20.30;69.50;;;;;;5041599;28;20571;-63
2023/02/28 07:41:43;;;;;;;3.78;2.22;;;20.30;69.60;;;;;;5039768;28;20199;-68
2023/02/28 07:44:12;;;;;;;2.40;2.20;;;20.30;69.60;;;;;;5041034;28;20219;-72
2023/02/28 07:46:39;;;;;;;2.95;2.65;;;20.40;69.80;;;;;;5049725;28;20210;-72
2023/02/28 07:49:06;;;;;;;2.50;2.22;;;20.40;69.90;;;;;;5041060;28;20201;-68
2023/02/28 07:51:33;;;;;;;3.10;2.80;;;20.40;70.00;;;;;;5041687;28;20210;-69
2023/02/28 07:53:59;;;;;;;2.47;2.28;;;20.40;70.00;;;;;;5044802;28;20204;-62
2023/02/28 07:56:26;;;;;;;2.70;2.50;;;20.40;70.00;;;;;;5045190;28;20210;-60
2023/02/28 07:58:53;;;;;;;2.88;2.55;;;20.40;70.10;;;;;;5040165;28;20215;-65
2023/02/28 08:01:21;;;;;;;2.90;2.63;;;20.40;70.20;;;;;;5038678;28;20198;-67
2023/02/28 08:03:48;;;;;;;4.10;2.95;;;20.40;70.20;;;;;;5042037;28;20742;-63
2023/02/28 08:06:22;;;;;;;2.75;2.53;;;20.50;71.10;;;;;;5045446;28;20196;-64
2023/02/28 08:08:49;;;;;;;3.42;3.13;;;20.50;70.40;;;;;;5044142;28;20234;-57
2023/02/28 08:11:17;;;;;;;5.68;2.60;;;20.50;70.40;;;;;;5045968;28;20302;-62
2023/02/28 08:13:45;;;;;;;2.80;2.60;;;20.50;70.40;;;;;;5044322;28;20694;-60
2023/02/28 08:16:14;;;;;;;3.97;2.53;;;20.50;70.40;;;;;;5045171;28;20198;-63
2023/02/28 08:18:42;;;;;;;2.55;2.35;;;20.50;70.30;;;;;;5048741;28;20393;-64
2023/02/28 08:21:09;;;;;;;2.58;2.38;;;20.60;70.50;;;;;;5047017;28;20671;-66
2023/02/28 08:23:36;;;;;;;3.05;2.47;;;20.60;70.60;;;;;;5046686;28;20204;-66
2023/02/28 08:26:03;;;;;;;2.70;2.50;;;20.60;70.60;;;;;;5050543;28;20233;-67
2023/02/28 08:28:30;;;;;;;2.17;1.90;;;20.60;70.60;;;;;;5045967;28;20207;-69
2023/02/28 08:30:57;;;;;;;2.13;1.93;;;20.60;70.60;;;;;;5047834;28;20467;-65
2023/02/28 08:33:25;;;;;;;2.13;1.93;;;20.60;71.40;;;;;;5050432;28;20474;-64
2023/02/28 08:35:55;;;;;;;2.33;2.13;;;20.70;70.70;;;;;;5040702;28;20473;-66
2023/02/28 08:38:22;;;;;;;2.50;2.30;;;20.60;70.30;;;;;;5040519;28;20540;-64
2023/02/28 08:40:49;;;;;;;3.03;2.67;;;20.60;70.30;;;;;;5036830;28;20219;-55
2023/02/28 08:43:15;;;;;;;3.60;1.95;;;20.60;70.30;;;;;;5041935;28;20214;-66
2023/02/28 08:45:42;;;;;;;2.10;1.90;;;20.60;70.40;;;;;;5038563;28;20238;-60
2023/02/28 08:48:09;;;;;;;3.20;2.65;;;20.60;70.40;;;;;;5033954;28;20196;-64
2023/02/28 08:50:36;;;;;;;2.83;2.63;;;20.60;70.40;;;;;;5046349;28;20199;-57
2023/02/28 08:53:04;;;;;;;2.75;2.55;;;20.60;70.70;;;;;;5041253;28;20460;-64
2023/02/28 08:55:31;;;;;;;8.68;3.00;;;20.60;70.40;;;;;;5040302;28;20196;-63
2023/02/28 08:57:58;;;;;;;5.43;2.40;;;20.60;70.60;;;;;;5044401;28;20195;-63
2023/02/28 09:00:24;;;;;;;2.58;2.38;;;20.60;70.20;;;;;;5044085;28;20519;-61
2023/02/28 09:02:51;;;;;;;3.13;2.83;;;20.60;70.20;;;;;;5047326;28;20203;-61
2023/02/28 09:05:18;;;;;;;8.68;2.60;;;20.60;70.20;;;;;;5047399;28;20215;-65
2023/02/28 09:07:44;;;;;;;5.27;2.30;;;20.60;70.20;;;;;;5039928;28;20207;-64
2023/02/28 09:10:13;;;;;;;5.85;2.50;;;20.60;70.10;;;;;;5046288;28;20525;-62
2023/02/28 09:12:39;;;;;;;2.83;2.58;;;20.60;70.10;;;;;;5043358;28;20196;-64
2023/02/28 09:15:08;;;;;;;4.22;2.45;;;20.60;70.20;;;;;;5041073;28;20211;-64
2023/02/28 09:17:34;;;;;;;2.10;1.90;;;20.60;71.00;;;;;;5047269;28;20222;-64
2023/02/28 09:20:01;;;;;;;2.50;2.30;;;20.60;70.10;;;;;;5042405;28;20204;-63
2023/02/28 09:22:28;;;;;;;2.40;2.20;;;20.60;70.10;;;;;;5045601;28;20482;-65
2023/02/28 09:24:54;;;;;;;2.47;1.93;;;20.60;70.00;;;;;;5041302;28;20512;-61
2023/02/28 09:27:22;;;;;;;1.95;1.75;;;20.70;70.10;;;;;;5037662;28;20468;-66
2023/02/28 09:29:49;;;;;;;2.23;2.03;;;20.70;70.10;;;;;;5039694;28;20200;-63
2023/02/28 09:32:17;;;;;;;2.28;2.10;;;20.70;70.00;;;;;;5045053;28;20453;-63
2023/02/28 09:34:44;;;;;;;2.10;1.83;;;20.70;69.90;;;;;;5036710;28;20198;-62
2023/02/28 09:37:11;;;;;;;3.73;2.17;;;20.70;69.90;;;;;;5033523;28;20204;-65
2023/02/28 09:39:37;;;;;;;3.83;2.80;;;20.70;69.90;;;;;;5046170;28;20485;-65
2023/02/28 09:42:07;;;;;;;2.47;2.27;;;20.70;69.80;;;;;;5042801;28;20537;-63
2023/02/28 09:44:39;;;;;;;2.35;1.90;;;20.80;69.80;;;;;;5035723;28;20769;-63
2023/02/28 09:47:12;;;;;;;2.35;2.15;;;20.80;69.70;;;;;;5044960;28;20192;-62
2023/02/28 09:49:42;;;;;;;2.20;2.00;;;20.80;69.80;;;;;;5040083;28;20325;-64
2023/02/28 09:52:12;;;;;;;1.93;1.50;;;20.80;69.70;;;;;;5046454;28;20829;-65
2023/02/28 09:54:40;;;;;;;2.30;2.10;;;20.80;69.60;;;;;;5043866;28;20466;-64
2023/02/28 09:57:09;;;;;;;2.60;2.20;;;20.80;69.60;;;;;;5048997;28;20461;-64
2023/02/28 10:00:08;;;;;;;1.87;1.70;;;20.70;69.40;;;;;;5044841;28;20488;-63
2023/02/28 10:02:53;;;;;;;2.17;1.98;;;20.70;69.40;;;;;;5027521;28;20470;-64
2023/02/28 10:05:23;;;;;;;2.13;1.70;;;20.70;69.40;;;;;;5040969;28;20220;-63
2023/02/28 10:07:59;;;;;;;2.10;1.90;;;20.70;69.30;;;;;;5047478;28;20400;-62
2023/02/28 10:10:30;;;;;;;3.15;2.00;;;20.70;69.30;;;;;;5042777;28;20214;-63
2023/02/28 10:13:00;;;;;;;2.05;1.80;;;20.70;69.20;;;;;;5049089;28;20191;-61
2023/02/28 10:15:32;;;;;;;1.80;1.70;;;20.70;69.20;;;;;;5046766;28;20210;-64
2023/02/28 10:18:03;;;;;;;2.80;2.60;;;20.70;69.10;;;;;;5044099;28;20466;-61
2023/02/28 10:20:34;;;;;;;1.90;1.80;;;20.60;68.90;;;;;;5045096;28;20588;-61
2023/02/28 10:23:08;;;;;;;4.35;2.35;;;20.60;68.90;;;;;;5043372;28;20249;-65
2023/02/28 10:25:36;;;;;;;2.88;2.03;;;20.60;68.90;;;;;;5041205;28;20223;-65
2023/02/28 10:28:11;;;;;;;2.53;2.33;;;20.40;68.90;;;;;;5039191;28;20195;-62
2023/02/28 10:30:43;;;;;;;8.93;3.05;;;20.50;69.00;;;;;;5031775;28;20947;-63
2023/02/28 10:33:19;;;;;;;9.02;2.60;;;20.50;69.00;;;;;;5042399;28;20569;-61
2023/02/28 10:35:46;;;;;;;4.72;2.30;;;20.50;69.10;;;;;;5038227;28;20253;-67
2023/02/28 10:38:17;;;;;;;4.68;2.10;;;20.50;68.90;;;;;;5048415;28;20202;-67
2023/02/28 10:40:44;;;;;;;2.53;2.30;;;20.50;68.70;;;;;;5041898;28;20191;-65
2023/02/28 10:43:21;;;;;;;2.70;1.90;;;20.60;68.80;;;;;;5057016;28;20524;-69
2023/02/28 10:45:59;;;;;;;3.28;1.75;;;20.60;69.60;;;;;;5043875;28;20246;-65
2023/02/28 10:48:31;;;;;;;2.17;1.88;;;20.60;68.80;;;;;;5045880;28;20206;-66
2023/02/28 10:50:59;;;;;;;1.77;1.50;;;20.70;69.00;;;;;;5042638;28;20192;-66
2023/02/28 10:53:33;;;;;;;2.20;1.67;;;20.70;68.90;;;;;;5045693;28;20215;-63
2023/02/28 10:56:02;;;;;;;2.28;1.65;;;20.70;69.00;;;;;;5041047;28;20198;-65
2023/02/28 10:58:31;;;;;;;1.85;1.42;;;20.80;69.10;;;;;;5047953;28;20206;-68
2023/02/28 11:01:00;;;;;;;1.67;1.50;;;20.80;69.20;;;;;;5040428;28;20206;-67
2023/02/28 11:03:32;;;;;;;2.10;1.55;;;20.80;69.20;;;;;;5044548;28;20733;-62
2023/02/28 11:06:04;;;;;;;10.88;2.10;;;20.80;69.20;;;;;;5043140;28;20223;-64
2023/02/28 11:08:32;;;;;;;1.98;1.65;;;20.80;69.20;;;;;;5044379;28;20206;-62
2023/02/28 11:11:04;;;;;;;1.52;1.42;;;20.80;69.30;;;;;;5043864;28;20578;-64
2023/02/28 11:13:34;;;;;;;1.95;1.75;;;20.80;69.30;;;;;;5037708;28;20203;-64
2023/02/28 11:16:05;;;;;;;2.45;2.08;;;20.80;69.30;;;;;;5047299;28;20260;-65
2023/02/28 11:18:38;;;;;;;3.58;1.85;;;20.80;69.40;;;;;;5046955;28;20643;-67
2023/02/28 11:21:06;;;;;;;6.80;1.70;;;20.80;69.40;;;;;;5044157;28;20195;-65
2023/02/28 11:23:36;;;;;;;2.08;1.90;;;20.80;69.40;;;;;;5047720;28;20454;-68
2023/02/28 11:26:09;;;;;;;4.60;1.70;;;20.80;69.40;;;;;;5052601;28;20211;-69
2023/02/28 11:28:38;;;;;;;1.75;1.52;;;20.80;69.40;;;;;;5050918;28;20210;-68
2023/02/28 11:31:16;;;;;;;1.60;1.50;;;20.80;69.50;;;;;;5047894;28;20195;-69
2023/02/28 11:33:44;;;;;;;1.67;1.50;;;20.80;69.50;;;;;;5050323;28;20218;-71
2023/02/28 11:36:14;;;;;;;2.05;1.48;;;20.80;69.40;;;;;;5051740;28;20562;-72
2023/02/28 11:38:42;;;;;;;1.63;1.52;;;20.80;69.50;;;;;;5054971;28;20253;-71
2023/02/28 11:41:32;;;;;;;2.63;1.77;;;20.80;69.40;;;;;;5055667;28;20200;-72
2023/02/28 11:44:22;;;;;;;3.07;2.13;;;20.80;69.50;;;;;;5055604;28;20639;-72
2023/02/28 11:46:53;;;;;;;2.25;1.60;;;20.80;69.50;;;;;;5050202;28;20478;-74
2023/02/28 11:49:31;;;;;;;2.50;1.70;;;20.80;69.60;;;;;;5049162;28;20278;-67
2023/02/28 11:52:02;;;;;;;2.10;1.40;;;20.80;69.50;;;;;;5055424;28;20196;-70
2023/02/28 11:54:45;;;;;;;4.17;1.60;;;20.80;69.50;;;;;;5054242;28;20250;-73
2023/02/28 11:57:30;;;;;;;1.67;1.50;;;20.80;69.60;;;;;;5057119;28;20473;-67
2023/02/28 12:00:04;;;;;;;2.50;1.48;;;20.80;69.60;;;;;;5056108;28;20202;-66
2023/02/28 12:02:46;;;;;;;1.70;1.40;;;20.80;69.60;;;;;;5054809;28;20195;-67
2023/02/28 12:05:24;;;;;;;3.15;1.77;;;20.80;69.60;;;;;;5052792;28;20466;-70
2023/02/28 12:08:03;;;;;;;1.70;1.30;;;20.80;69.50;;;;;;5057659;28;20192;-70
2023/02/28 12:10:36;;;;;;;1.80;1.50;;;20.80;69.50;;;;;;5051649;28;20191;-68
2023/02/28 12:13:13;;;;;;;1.70;1.53;;;20.80;69.60;;;;;;5044136;28;21024;-68
2023/02/28 12:16:08;;;;;;;2.37;1.40;;;20.80;69.60;;;;;;5046696;28;20956;-68
2023/02/28 12:18:52;;;;;;;1.60;1.23;;;20.90;69.70;;;;;;5041409;28;20937;-69
2023/02/28 12:21:29;;;;;;;2.00;1.80;;;20.90;69.70;;;;;;5049212;28;20446;-70
2023/02/28 12:24:14;;;;;;;2.00;1.80;;;20.90;69.70;;;;;;5047497;28;20705;-62
2023/02/28 12:26:43;;;;;;;1.67;1.40;;;20.90;70.50;;;;;;5048114;28;20226;-62
2023/02/28 12:29:17;;;;;;;1.42;1.33;;;20.90;69.60;;;;;;5048904;28;20489;-68
2023/02/28 12:31:50;;;;;;;1.97;1.80;;;20.90;69.60;;;;;;5051576;28;20674;-67
2023/02/28 12:34:22;;;;;;;3.03;1.30;;;20.90;69.60;;;;;;5047670;28;20832;-66
2023/02/28 12:36:51;;;;;;;1.60;1.33;;;20.90;69.60;;;;;;5052406;28;20446;-62
2023/02/28 12:39:21;;;;;;;1.80;1.70;;;20.90;69.60;;;;;;5049636;28;20545;-66
2023/02/28 12:41:52;;;;;;;1.57;1.40;;;20.90;69.60;;;;;;5046541;28;20188;-67
2023/02/28 12:44:24;;;;;;;1.50;1.33;;;20.90;69.60;;;;;;5051876;28;20830;-73
2023/02/28 12:46:53;;;;;;;1.70;1.53;;;20.90;69.60;;;;;;5053724;28;20212;-65
2023/02/28 12:49:26;;;;;;;1.77;1.67;;;20.90;69.60;;;;;;5049118;28;20465;-68
2023/02/28 12:51:54;;;;;;;1.33;1.23;;;20.90;69.50;;;;;;5054568;28;20445;-66
2023/02/28 12:54:26;;;;;;;1.67;1.57;;;20.90;69.50;;;;;;5043282;28;20459;-64
2023/02/28 12:57:03;;;;;;;1.40;1.30;;;20.90;69.50;;;;;;5054372;28;20478;-69
2023/02/28 12:59:39;;;;;;;1.33;1.20;;;20.90;69.60;;;;;;5056008;28;20196;-68
2023/02/28 13:02:47;;;;;;;1.60;1.40;;;20.90;69.50;;;;;;5047369;28;20969;-71
2023/02/28 13:05:33;;;;;;;1.57;1.30;;;20.90;69.60;;;;;;5046573;28;20458;-70
2023/02/28 13:08:27;;;;;;;2.30;1.40;;;20.90;69.50;;;;;;5056659;28;20810;-66
2023/02/28 13:10:55;;;;;;;1.75;1.65;;;20.90;69.60;;;;;;5053661;28;21022;-69
2023/02/28 13:13:24;;;;;;;1.70;1.30;;;20.90;69.60;;;;;;5053421;28;20207;-67
2023/02/28 13:16:04;;;;;;;2.13;1.60;;;20.90;69.60;;;;;;5055773;28;20192;-70
2023/02/28 13:18:36;;;;;;;2.00;1.30;;;20.90;69.60;;;;;;5051760;28;20520;-69
2023/02/28 13:21:05;;;;;;;1.50;1.30;;;20.90;69.50;;;;;;5050725;28;20462;-66
2023/02/28 13:23:58;;;;;;;1.40;1.25;;;20.90;69.50;;;;;;5051113;28;20202;-64
2023/02/28 13:27:03;;;;;;;1.43;1.23;;;20.90;69.50;;;;;;5047265;28;20758;-65
2023/02/28 13:29:33;;;;;;;1.30;1.20;;;20.90;69.60;;;;;;5046393;28;20462;-66
2023/02/28 13:32:33;;;;;;;1.65;1.20;;;20.90;69.50;;;;;;5044571;28;20811;-62
2023/02/28 13:35:31;;;;;;;1.75;1.27;;;20.90;69.60;;;;;;5045858;28;20227;-69
2023/02/28 13:38:22;;;;;;;1.73;1.60;;;20.90;69.60;;;;;;5047138;28;20210;-67
2023/02/28 13:40:48;;;;;;;1.30;1.20;;;20.80;69.30;;;;;;5047600;28;20199;-70